Weather observations for the past three days for
Newburgh / Stewart
Metric (Imperial)
Date Time (edt) Wind (kph) Vis. (km) Weather Sky Cond. Temperature (ºC) Relative Humidity Wind Chill (°C) Heat Index (°C) Pressure Precipitation (cm)
Air Dwpt 6 hour altimeter (cm) sea level (mb) 1 hr 3 hr 6 hr
Max. Min.
02 12:45 SE 7 11.27 Overcast OVC011 19 18 94% 76.56 0.0
02 11:45 SE 13 11.27 Overcast OVC012 18 17 94% 76.56 0.0
02 10:45 Calm 11.27 Overcast OVC012 18 17 94% 76.61 0.0
02 09:45 SE 11 16.09 Overcast BKN007 OVC012 17 17 100% 76.61 0.0
02 08:45 SE 11 11.27 Overcast BKN007 OVC012 17 17 100% 76.56 0.0
02 07:45 E 11 2.41 Fog/Mist OVC003 17 17 100% 76.53 0.0
02 06:45 E 11 2.41 Fog/Mist OVC004 17 17 100% 76.53 0.0
02 05:45 E 11 2.41 Fog/Mist OVC004 17 17 100% 76.48 0.0
02 04:45 E 9 8.05 Fog/Mist OVC004 17 17 100% 76.45 0.0
02 03:45 E 11 11.27 Overcast OVC009 18 18 100% 76.43 0.0
02 02:45 SE 9 11.27 Overcast OVC009 18 18 100% 76.43 0.0
02 01:45 SE 9 11.27 Overcast OVC007 18 18 100% 76.43 0.0
02 00:45 SE 15 11.27 Overcast OVC005 18 18 100% 76.43 0.0
01 23:45 E 15 11.27 Overcast OVC007 19 18 94% 76.35 0.0
01 21:45 E 15 16.09 Overcast OVC010 20 19 94% 76.28 0.0
01 20:45 E 17 11.27 Overcast OVC010 21 20 94% 76.2 0.0
01 19:45 E 20 11.27 Overcast BKN006 OVC010 22 21 94% 76.15 0.0
01 18:45 E 15 16.09 Mostly Cloudy BKN015 BKN040 25 23 89% 26 76.1 0.0
01 17:45 NE 13 16.09 Overcast BKN020 OVC045 25 23 89% 26 76.1 0.0
01 16:45 SW 9 16.09 Mostly Cloudy SCT020 BKN050 27 23 79% 30 76.05 0.0
01 15:45 SW 7 16.09 Mostly Cloudy SCT020 BKN050 27 23 79% 30 76.05 0.0
01 14:45 W 9 16.09 Mostly Cloudy BKN020 26 23 84% 28 76.07 0.0
01 13:45 Vrbl 9 16.09 Mostly Cloudy BKN020 26 23 84% 28 76.07 0.0
01 12:45 Calm 8.05 Fog/Mist BKN005 BKN020 23 23 100% 76.12 0.0
01 11:45 Calm 3.22 Light Rain Fog/Mist OVC004 22 22 100% 76.17 0.0
01 10:45 Calm 3.22 Light Rain Fog/Mist OVC004 21 21 100% 76.2 0.0
01 09:45 Vrbl 6 3.22 Light Rain Fog/Mist SCT005 BKN030 21 21 100% 76.2 0.0
01 08:45 Calm 4.83 Rain Fog/Mist BKN040 21 21 100% 76.23 0.0
01 07:45 Calm 8.05 Fog/Mist OVC075 21 21 100% 76.17 0.0
01 06:45 SW 7 6.44 Light Rain Fog/Mist OVC009 21 21 100% 76.2 0.0
01 05:45 SW 9 8.05 Fog/Mist SCT004 OVC012 21 21 100% 76.17 0.0
01 04:45 SE 6 4.83 Fog/Mist SCT004 OVC015 20 20 100% 76.2 0.0
01 03:45 SE 6 3.22 Light Rain Fog/Mist SCT004 OVC017 20 20 100% 76.23 0.0
01 02:45 SE 9 4.83 Light Rain Fog/Mist SCT004 OVC008 20 20 100% 76.25 0.0
01 01:45 S 9 4.83 Light Rain Fog/Mist SCT004 OVC009 20 20 100% 76.28 0.0
01 00:45 S 9 4.83 Light Rain Fog/Mist SCT004 OVC014 20 20 100% 76.3 0.0
31 23:45 S 9 8.05 Light Rain Fog/Mist OVC024 21 20 94% 76.33 0.0
31 22:45 Calm 11.27 Light Drizzle OVC024 21 20 94% 76.35 0.0
31 21:45 Calm 6.44 Light Drizzle Fog/Mist BKN020 OVC030 21 21 100% 76.38 0.0
31 20:45 Calm 11.27 Overcast SCT017 OVC038 21 21 100% 76.38 0.0
31 19:45 Calm 16.09 Overcast BKN040 OVC045 21 20 94% 76.38 0.0
31 18:45 Calm 16.09 Overcast BKN036 OVC048 22 20 88% 76.4 0.0
31 17:45 W 11 16.09 Overcast FEW010 BKN030 OVC040 22 20 88% 76.4 0.0
31 16:45 Calm 16.09 Overcast OVC030 23 19 78% 76.4 0.0
31 15:45 Calm 16.09 Mostly Cloudy SCT030 BKN050 23 19 78% 76.43 0.0
31 14:45 Calm 16.09 Mostly Cloudy SCT030 BKN050 23 19 78% 76.48 0.0
31 13:45 Calm 16.09 Mostly Cloudy SCT030 BKN050 24 19 74% 25 76.53 0.0
31 12:45 Vrbl 7 16.09 Mostly Cloudy SCT025 BKN080 23 19 78% 76.56 0.0
31 11:45 Vrbl 7 16.09 Partly Cloudy SCT025 SCT120 22 19 83% 76.56 0.0
31 10:45 Vrbl 7 16.09 Partly Cloudy SCT015 SCT120 22 19 83% 76.56 0.0
31 09:45 Vrbl 6 16.09 Mostly Cloudy SCT015 BKN120 22 19 83% 76.56 0.0
31 08:45 Vrbl 6 16.09 Mostly Cloudy BKN120 21 18 83% 76.56 0.0
31 07:45 NW 9 16.09 Mostly Cloudy BKN120 18 18 100% 76.53 0.0
31 06:45 NW 9 11.27 Mostly Cloudy BKN120 17 17 100% 76.5 0.0
31 05:45 Calm 11.27 Overcast OVC080 17 17 100% 76.48 0.0
31 04:45 Calm 11.27 Overcast OVC080 19 17 88% 76.4 0.0
31 03:45 Calm 11.27 Overcast OVC080 19 17 88% 76.4 0.0
31 02:45 Calm 11.27 Overcast OVC080 21 19 88% 76.43 0.0
31 01:45 Vrbl 7 11.27 Overcast OVC080 21 19 88% 76.43 0.0
31 00:45 Calm 11.27 Overcast OVC080 21 19 88% 76.43 0.0
30 23:45 W 19 11.27 Overcast OVC080 21 20 94% 76.43 0.0
30 22:45 Calm 11.27 Overcast OVC080 21 21 100% 76.43 0.0
30 21:45 Calm 11.27 Overcast OVC080 22 21 94% 76.4 0.0
30 19:45 Calm 11.27 Overcast OVC080 22 21 94% 76.33 0.0
30 17:45 Calm 16.09 Overcast OVC080 24 21 83% 24 76.33 0.0
30 16:45 W 13 16.09 Overcast BKN080 OVC100 24 20 78% 24 76.35 0.0
30 15:45 SW 13 16.09 Overcast BKN030 OVC060 24 20 78% 24 76.35 0.0
30 13:45 SW 13 16.09 Overcast OVC030 25 18 65% 26 76.45 0.0
Date Time (edt) Wind (kph) Vis. (km) Weather Sky Cond. Air Dwpt Max. Min. Relative Humidity Wind Chill (°C) Heat Index (°C) altimeter (cm) sea level (mb) 1 hr 3 hr 6 hr
6 hour
Temperature (ºC) Pressure Precipitation (cm)